Time;durP1;ratioP1;P1;durP2;ratioP2;P2;SDS_P1;SDS_P2;PMS_P1;PMS_P2;Temp;Humidity;BMP_temperature;BMP_pressure;BME280_temperature;BME280_humidity;BME280_pressure;Samples;Min_cycle;Max_cycle;Signal;HPM_P1;HPM_P2
2023/03/15 00:00:48;;;;;;;5.03;3.00;;;;;;;-142.70;100.00;60390.16;4868450;29;20029;-81
2023/03/15 00:03:14;;;;;;;4.25;3.80;;;;;;;-142.70;100.00;60390.16;4868559;29;20104;-80
2023/03/15 00:05:47;;;;;;;3.13;2.83;;;;;;;-142.70;100.00;60390.16;4869601;29;20476;-80
2023/03/15 00:08:15;;;;;;;6.10;3.70;;;;;;;-142.70;100.00;60390.16;4868326;29;20487;-80
2023/03/15 00:10:44;;;;;;;5.60;3.33;;;;;;;-142.70;100.00;60390.16;4868844;29;20263;-80
2023/03/15 00:13:10;;;;;;;4.10;3.00;;;;;;;-142.70;100.00;60390.16;4883616;29;20076;-80
2023/03/15 00:15:44;;;;;;;4.07;3.00;;;;;;;-142.70;100.00;60390.16;4871314;29;20049;-80
2023/03/15 00:18:09;;;;;;;3.17;2.55;;;;;;;-142.70;100.00;60390.16;4874089;29;20041;-81
2023/03/15 00:20:36;;;;;;;4.90;3.08;;;;;;;-142.70;100.00;60390.16;4871670;29;20105;-81
2023/03/15 00:23:02;;;;;;;4.97;2.92;;;;;;;-142.70;100.00;60390.16;4855616;29;20017;-81
2023/03/15 00:25:27;;;;;;;2.80;2.45;;;;;;;-142.70;100.00;60390.16;4873061;29;20128;-80
2023/03/15 00:27:52;;;;;;;6.32;3.10;;;;;;;-142.70;100.00;60390.16;4855787;29;20036;-80
2023/03/15 00:30:18;;;;;;;5.88;2.85;;;;;;;-142.70;100.00;60390.16;4872865;29;20029;-80
2023/03/15 00:32:43;;;;;;;4.65;2.67;;;;;;;-142.70;100.00;60390.16;4855788;29;20025;-80
2023/03/15 00:35:11;;;;;;;2.75;2.47;;;;;;;-142.70;100.00;60390.16;4857337;29;20041;-80
2023/03/15 00:37:37;;;;;;;4.03;2.83;;;;;;;-142.70;100.00;60390.16;4871916;29;20122;-80
2023/03/15 00:40:05;;;;;;;3.92;2.63;;;;;;;-142.70;100.00;60390.16;4871914;29;20165;-80
2023/03/15 00:42:32;;;;;;;3.72;2.67;;;;;;;-142.70;100.00;60390.16;4870736;29;20033;-80
2023/03/15 00:44:58;;;;;;;3.65;2.78;;;;;;;-142.70;100.00;60390.16;4856539;29;20533;-80
2023/03/15 00:47:24;;;;;;;5.47;2.35;;;;;;;-142.70;100.00;60390.16;4874362;29;20057;-80
2023/03/15 00:49:49;;;;;;;2.72;2.20;;;;;;;-142.70;100.00;60390.16;4872944;29;20491;-80
2023/03/15 00:52:16;;;;;;;6.13;2.80;;;;;;;-142.70;100.00;60390.16;4870673;29;20040;-80
2023/03/15 00:54:42;;;;;;;3.58;2.67;;;;;;;-142.70;100.00;60390.16;4855186;29;20060;-80
2023/03/15 00:57:08;;;;;;;4.03;2.40;;;;;;;-142.70;100.00;60390.16;4873384;29;20080;-80
2023/03/15 00:59:34;;;;;;;3.65;2.50;;;;;;;-142.70;100.00;60390.16;4872071;29;20029;-80
2023/03/15 01:02:04;;;;;;;2.92;2.05;;;;;;;-142.70;100.00;60390.16;4871805;29;20850;-79
2023/03/15 01:04:31;;;;;;;4.78;2.60;;;;;;;-142.70;100.00;60390.16;4884127;29;20080;-80
2023/03/15 01:06:57;;;;;;;4.68;2.70;;;;;;;-142.70;100.00;60390.16;4885921;29;20045;-80
2023/03/15 01:09:23;;;;;;;3.47;2.75;;;;;;;-142.70;100.00;60390.16;4870455;29;20096;-80
2023/03/15 01:11:49;;;;;;;4.60;2.80;;;;;;;-142.70;100.00;60390.16;4871006;29;20083;-80
2023/03/15 01:14:14;;;;;;;4.53;2.88;;;;;;;-142.70;100.00;60390.16;4869219;29;20493;-80
2023/03/15 01:16:39;;;;;;;7.13;3.65;;;;;;;-142.70;100.00;60390.16;4884613;29;20041;-80
2023/03/15 01:19:05;;;;;;;3.40;3.08;;;;;;;-142.70;100.00;60390.16;4868396;29;20077;-80
2023/03/15 01:21:30;;;;;;;6.05;2.95;;;;;;;-142.70;100.00;60390.16;4860314;29;20057;-80
2023/03/15 01:23:56;;;;;;;4.60;3.05;;;;;;;-142.70;100.00;60390.16;4864121;29;20068;-80
2023/03/15 01:26:22;;;;;;;6.40;3.80;;;;;;;-142.70;100.00;60390.16;4868070;29;20025;-80
2023/03/15 01:28:48;;;;;;;3.78;3.22;;;;;;;-142.70;100.00;60390.16;4869938;29;20067;-80
2023/03/15 01:31:18;;;;;;;4.10;3.65;;;;;;;-142.70;100.00;60390.16;4878620;29;21117;-79
2023/03/15 01:33:43;;;;;;;4.32;3.60;;;;;;;-142.70;100.00;60390.16;4851663;29;20037;-80
2023/03/15 01:36:10;;;;;;;5.80;3.58;;;;;;;-142.70;100.00;60390.16;4866532;29;20084;-80
2023/03/15 01:38:36;;;;;;;7.68;4.00;;;;;;;-142.70;100.00;60390.16;4853427;29;20491;-80
2023/03/15 01:41:01;;;;;;;5.15;3.90;;;;;;;-142.70;100.00;60390.16;4868231;29;20093;-78
2023/03/15 01:43:28;;;;;;;3.70;3.38;;;;;;;-142.70;100.00;60390.16;4869340;29;20029;-80
2023/03/15 01:46:18;;;;;;;4.57;3.90;;;;;;;-142.70;100.00;60390.16;4868397;29;20029;-80
2023/03/15 01:49:06;;;;;;;5.30;3.58;;;;;;;-142.70;100.00;60390.16;4853902;29;20107;-80
2023/03/15 01:51:40;;;;;;;3.67;3.10;;;;;;;-142.70;100.00;60390.16;4869154;29;20169;-80
2023/03/15 01:54:09;;;;;;;3.95;3.63;;;;;;;-142.70;100.00;60390.16;4837635;29;20053;-80
2023/03/15 01:56:39;;;;;;;5.63;3.65;;;;;;;-142.70;100.00;60390.16;4862430;29;20048;-80
2023/03/15 01:59:07;;;;;;;6.90;4.00;;;;;;;-142.70;100.00;60390.16;4862605;29;20057;-81
2023/03/15 02:01:35;;;;;;;6.72;3.75;;;;;;;-142.70;100.00;60390.16;4863424;29;20446;-80
2023/03/15 02:04:07;;;;;;;6.80;3.78;;;;;;;-142.70;100.00;60390.16;4856880;29;20025;-80
2023/03/15 02:06:33;;;;;;;3.72;3.38;;;;;;;-142.70;100.00;60390.16;4842941;29;20037;-80
2023/03/15 02:09:02;;;;;;;4.82;3.55;;;;;;;-142.70;100.00;60390.16;4867920;29;20029;-80
2023/03/15 02:11:28;;;;;;;6.45;3.55;;;;;;;-142.70;100.00;60390.16;4868375;29;20041;-80
2023/03/15 02:13:54;;;;;;;6.80;3.83;;;;;;;-142.70;100.00;60390.16;4868484;29;20029;-80
2023/03/15 02:16:21;;;;;;;5.28;3.40;;;;;;;-142.70;100.00;60390.16;4867545;29;20043;-80
2023/03/15 02:18:47;;;;;;;3.75;3.08;;;;;;;-142.70;100.00;60390.16;4870349;29;20588;-80
2023/03/15 02:21:20;;;;;;;4.30;3.20;;;;;;;-142.70;100.00;60390.16;4857266;29;20530;-80
2023/03/15 02:23:53;;;;;;;6.10;3.22;;;;;;;-142.70;100.00;60390.16;4887905;29;20033;-80
2023/03/15 02:26:24;;;;;;;6.80;2.72;;;;;;;-142.70;100.00;60390.16;4870232;29;20032;-80
2023/03/15 02:28:50;;;;;;;4.90;3.20;;;;;;;-142.70;100.00;60390.16;4886802;29;20036;-80
2023/03/15 02:31:17;;;;;;;4.85;2.72;;;;;;;-142.70;100.00;60390.16;4870942;29;20024;-80
2023/03/15 02:33:48;;;;;;;4.13;3.40;;;;;;;-142.70;100.00;60390.16;4886099;29;20059;-80
2023/03/15 02:36:19;;;;;;;3.08;2.75;;;;;;;-142.70;100.00;60390.16;4871090;29;20028;-80
2023/03/15 02:38:46;;;;;;;9.48;3.20;;;;;;;-142.70;100.00;60390.16;4869570;29;20032;-80
2023/03/15 02:41:12;;;;;;;5.80;3.38;;;;;;;-142.70;100.00;60390.16;4870285;29;20040;-80
2023/03/15 02:43:38;;;;;;;3.75;2.90;;;;;;;-142.70;100.00;60390.16;4854274;29;20031;-80
2023/03/15 02:46:04;;;;;;;4.40;2.85;;;;;;;-142.70;100.00;60390.16;4870518;29;20032;-80
2023/03/15 02:48:31;;;;;;;3.08;2.70;;;;;;;-142.70;100.00;60390.16;4886316;29;20104;-80
2023/03/15 02:50:56;;;;;;;4.88;2.50;;;;;;;-142.70;100.00;60390.16;4870879;29;20029;-80
2023/03/15 02:53:23;;;;;;;2.80;2.42;;;;;;;-142.70;100.00;60390.16;4870410;29;20587;-80
2023/03/15 02:55:48;;;;;;;3.47;2.90;;;;;;;-142.70;100.00;60390.16;4887311;29;20075;-80
2023/03/15 02:58:14;;;;;;;3.50;2.45;;;;;;;-142.70;100.00;60390.16;4886360;29;20032;-80
2023/03/15 03:00:39;;;;;;;4.15;2.75;;;;;;;-142.70;100.00;60390.16;4886997;29;20029;-80
2023/03/15 03:03:05;;;;;;;3.95;2.60;;;;;;;-142.70;100.00;60390.16;4886587;29;20132;-80
2023/03/15 03:05:30;;;;;;;6.32;2.83;;;;;;;-142.70;100.00;60390.16;4871933;29;20035;-80
2023/03/15 03:07:55;;;;;;;3.63;2.75;;;;;;;-142.70;100.00;60390.16;4888637;29;20804;-80
2023/03/15 03:10:21;;;;;;;3.17;2.33;;;;;;;-142.70;100.00;60390.16;4871142;29;20020;-80
2023/03/15 03:12:52;;;;;;;4.32;3.17;;;;;;;-142.70;100.00;60390.16;4887948;29;20111;-80
2023/03/15 03:15:17;;;;;;;3.60;2.15;;;;;;;-142.70;100.00;60390.16;4871242;29;20580;-80
2023/03/15 03:17:43;;;;;;;5.72;2.25;;;;;;;-142.70;100.00;60390.16;4871121;29;20032;-80
2023/03/15 03:20:11;;;;;;;3.60;2.88;;;;;;;-142.70;100.00;60390.16;4870092;29;20052;-80
2023/03/15 03:22:37;;;;;;;3.50;2.50;;;;;;;-142.70;100.00;60390.16;4855871;29;20036;-80
2023/03/15 03:25:05;;;;;;;3.22;2.70;;;;;;;-142.70;100.00;60390.16;4870789;29;20032;-81
2023/03/15 03:27:30;;;;;;;5.85;3.08;;;;;;;-142.70;100.00;60390.16;4871812;29;20537;-81
2023/03/15 03:29:55;;;;;;;3.10;2.58;;;;;;;-142.70;100.00;60390.16;4870747;29;20025;-80
2023/03/15 03:32:21;;;;;;;4.50;3.53;;;;;;;-142.70;100.00;60390.16;4886655;29;20127;-80
2023/03/15 03:34:48;;;;;;;12.70;7.10;;;;;;;-142.70;100.00;60390.16;4854395;29;20428;-80
2023/03/15 03:37:17;;;;;;;12.57;8.95;;;;;;;-142.70;100.00;60390.16;4854953;29;20041;-80
2023/03/15 03:39:43;;;;;;;10.27;9.23;;;;;;;-142.70;100.00;60390.16;4869488;29;20029;-80
2023/03/15 03:42:09;;;;;;;12.02;8.75;;;;;;;-142.70;100.00;60390.16;4887492;29;20442;-80
2023/03/15 03:44:34;;;;;;;6.85;6.25;;;;;;;-142.70;100.00;60390.16;4870095;29;20025;-80
2023/03/15 03:46:59;;;;;;;7.22;4.70;;;;;;;-142.70;100.00;60390.16;4871263;29;20036;-80
2023/03/15 03:49:25;;;;;;;4.68;4.00;;;;;;;-142.70;100.00;60390.16;4872431;29;20036;-80
2023/03/15 03:51:50;;;;;;;8.15;5.97;;;;;;;-142.70;100.00;60390.16;4890666;29;20067;-80
2023/03/15 03:54:16;;;;;;;5.40;4.75;;;;;;;-142.70;100.00;60390.16;4857300;29;20036;-80
2023/03/15 03:56:41;;;;;;;7.05;4.00;;;;;;;-142.70;100.00;60390.16;4888764;29;20032;-80
2023/03/15 03:59:07;;;;;;;3.60;3.20;;;;;;;-142.70;100.00;60390.16;4873291;29;20036;-80
2023/03/15 04:01:32;;;;;;;3.70;3.00;;;;;;;-142.70;100.00;60390.16;4858250;29;20039;-80
2023/03/15 04:03:58;;;;;;;5.30;4.03;;;;;;;-142.70;100.00;60390.16;4890691;29;20029;-81
2023/03/15 04:06:23;;;;;;;3.53;3.22;;;;;;;-142.70;100.00;60390.16;4891630;29;20028;-80
2023/03/15 04:08:49;;;;;;;5.07;2.95;;;;;;;-142.70;100.00;60390.16;4859243;29;20039;-80
2023/03/15 04:11:16;;;;;;;4.53;3.53;;;;;;;-142.70;100.00;60390.16;4857524;29;20025;-80
2023/03/15 04:13:43;;;;;;;7.15;4.13;;;;;;;-142.70;100.00;60390.16;4874457;29;20029;-80
2023/03/15 04:16:09;;;;;;;3.33;3.03;;;;;;;-142.70;100.00;60390.16;4857301;29;20459;-80
2023/03/15 04:18:34;;;;;;;3.75;3.25;;;;;;;-142.70;100.00;60390.16;4874029;29;20044;-80
2023/03/15 04:20:59;;;;;;;10.02;3.58;;;;;;;-142.70;100.00;60390.16;4869527;29;20048;-80
2023/03/15 04:23:25;;;;;;;5.13;3.05;;;;;;;-142.70;100.00;60390.16;4864077;29;20024;-80
2023/03/15 04:25:51;;;;;;;3.55;3.10;;;;;;;-142.70;100.00;60390.16;4872085;29;20175;-80
2023/03/15 04:28:18;;;;;;;4.78;3.78;;;;;;;-142.70;100.00;60390.16;4872789;29;20036;-80
2023/03/15 04:30:43;;;;;;;3.95;3.20;;;;;;;-142.70;100.00;60390.16;4872637;29;20700;-80
2023/03/15 04:33:09;;;;;;;4.97;2.90;;;;;;;-142.70;100.00;60390.16;4872547;29;20029;-80
2023/03/15 04:35:36;;;;;;;5.53;2.83;;;;;;;-142.70;100.00;60390.16;4872930;29;20430;-80
2023/03/15 04:38:02;;;;;;;3.67;2.80;;;;;;;-142.70;100.00;60390.16;4889501;29;20028;-80
2023/03/15 04:40:29;;;;;;;6.00;3.00;;;;;;;-142.70;100.00;60390.16;4872946;29;20036;-80
2023/03/15 04:42:55;;;;;;;5.07;3.17;;;;;;;-142.70;100.00;60390.16;4872858;29;20041;-80
2023/03/15 04:45:22;;;;;;;4.32;3.10;;;;;;;-142.70;100.00;60390.16;4889490;29;20040;-80
2023/03/15 04:47:48;;;;;;;4.47;2.78;;;;;;;-142.70;100.00;60390.16;4871816;29;20033;-80
2023/03/15 04:50:15;;;;;;;10.73;3.15;;;;;;;-142.70;100.00;60390.16;4888759;29;20037;-80
2023/03/15 04:52:40;;;;;;;6.72;3.60;;;;;;;-142.70;100.00;60390.16;4871541;29;20029;-80
2023/03/15 04:55:06;;;;;;;5.40;3.35;;;;;;;-142.70;100.00;60390.16;4888961;29;20407;-81
2023/03/15 04:57:31;;;;;;;4.28;2.80;;;;;;;-142.70;100.00;60390.16;4872510;29;20554;-80
2023/03/15 04:59:57;;;;;;;4.07;2.80;;;;;;;-142.70;100.00;60390.16;4874207;29;20045;-80
2023/03/15 05:02:22;;;;;;;7.47;2.40;;;;;;;-142.70;100.00;60390.16;4872443;29;20114;-80
2023/03/15 05:04:48;;;;;;;4.28;3.10;;;;;;;-142.70;100.00;60390.16;4870272;29;20081;-81
2023/03/15 05:07:13;;;;;;;4.55;2.60;;;;;;;-142.70;100.00;60390.16;4870018;29;20494;-80
2023/03/15 05:09:39;;;;;;;7.35;2.78;;;;;;;-142.70;100.00;60390.16;4887989;29;20040;-80
2023/03/15 05:12:06;;;;;;;3.30;2.88;;;;;;;-142.70;100.00;60390.16;4873494;29;20418;-80
2023/03/15 05:14:32;;;;;;;4.72;2.70;;;;;;;-142.70;100.00;60390.16;4872837;29;20088;-80
2023/03/15 05:16:58;;;;;;;4.18;2.35;;;;;;;-142.70;100.00;60390.16;4873515;29;20040;-81
2023/03/15 05:19:25;;;;;;;7.90;2.85;;;;;;;-142.70;100.00;60390.16;4871095;29;20053;-79
2023/03/15 05:21:50;;;;;;;5.25;3.20;;;;;;;-142.70;100.00;60390.16;4871645;29;20116;-80
2023/03/15 05:24:16;;;;;;;2.63;2.38;;;;;;;-142.70;100.00;60390.16;4886762;29;20402;-78
2023/03/15 05:26:45;;;;;;;5.32;2.75;;;;;;;-142.70;100.00;60390.16;4870839;29;20483;-78
2023/03/15 05:29:11;;;;;;;5.70;2.33;;;;;;;-142.70;100.00;60390.16;4870986;29;20506;-80
2023/03/15 05:31:38;;;;;;;5.80;2.30;;;;;;;-142.70;100.00;60390.16;4872144;29;20036;-78
2023/03/15 05:34:03;;;;;;;4.95;2.60;;;;;;;-142.70;100.00;60390.16;4871595;29;20119;-78
2023/03/15 05:36:30;;;;;;;3.80;2.35;;;;;;;-142.70;100.00;60390.16;4887458;29;20033;-81
2023/03/15 05:38:55;;;;;;;11.75;2.47;;;;;;;-142.70;100.00;60390.16;4874060;29;20041;-78
2023/03/15 05:41:21;;;;;;;11.55;2.60;;;;;;;-142.70;100.00;60390.16;4873608;29;20029;-81
2023/03/15 05:43:46;;;;;;;4.40;2.40;;;;;;;-142.70;100.00;60390.16;4891688;29;20554;-80
2023/03/15 05:46:12;;;;;;;2.22;1.95;;;;;;;-142.70;100.00;60390.16;4888058;29;20032;-81
2023/03/15 05:48:38;;;;;;;3.83;3.20;;;;;;;-142.70;100.00;60390.16;4857466;29;20550;-78
2023/03/15 05:51:03;;;;;;;3.88;3.47;;;;;;;-142.70;100.00;60390.16;4870727;29;20086;-78
2023/03/15 05:53:29;;;;;;;8.00;5.78;;;;;;;-142.70;100.00;60390.16;4871165;29;20036;-78
2023/03/15 05:55:54;;;;;;;11.43;7.45;;;;;;;-142.70;100.00;60390.16;4853497;29;20025;-78
2023/03/15 05:58:20;;;;;;;8.35;6.18;;;;;;;-142.70;100.00;60390.16;4888097;29;20036;-78
2023/03/15 06:00:48;;;;;;;5.05;4.10;;;;;;;-142.70;100.00;60390.16;4869360;29;20033;-78
2023/03/15 06:03:13;;;;;;;7.35;3.58;;;;;;;-142.70;100.00;60390.16;4854431;29;20037;-78
2023/03/15 06:05:39;;;;;;;3.47;2.95;;;;;;;-142.70;100.00;60390.16;4869299;29;20044;-77
2023/03/15 06:08:04;;;;;;;2.50;2.30;;;;;;;-142.70;100.00;60390.16;4887346;29;20601;-78
2023/03/15 06:10:30;;;;;;;3.45;1.92;;;;;;;-142.70;100.00;60390.16;4887865;29;20060;-78
2023/03/15 06:12:55;;;;;;;5.95;2.13;;;;;;;-142.70;100.00;60390.16;4874845;29;20064;-79
2023/03/15 06:15:21;;;;;;;4.13;2.08;;;;;;;-142.70;100.00;60390.16;4888884;29;20051;-78
2023/03/15 06:17:46;;;;;;;3.88;2.15;;;;;;;-142.70;100.00;60390.16;4869392;29;20426;-79
2023/03/15 06:20:12;;;;;;;3.13;1.90;;;;;;;-142.70;100.00;60390.16;4871698;29;20049;-77
2023/03/15 06:22:37;;;;;;;2.70;1.77;;;;;;;-142.70;100.00;60390.16;4886752;29;20047;-81
2023/03/15 06:25:03;;;;;;;4.53;2.17;;;;;;;-142.70;100.00;60390.16;4890532;29;20490;-81
2023/03/15 06:27:29;;;;;;;4.22;2.05;;;;;;;-142.70;100.00;60390.16;4872348;29;20040;-79
2023/03/15 06:29:55;;;;;;;4.18;2.10;;;;;;;-142.70;100.00;60390.16;4888349;29;20033;-78
2023/03/15 06:32:20;;;;;;;2.55;2.20;;;;;;;-142.70;100.00;60390.16;4888429;29;20036;-78
2023/03/15 06:34:46;;;;;;;7.68;3.95;;;;;;;-142.70;100.00;60390.16;4887164;29;20032;-78
2023/03/15 06:37:12;;;;;;;5.22;3.10;;;;;;;-142.70;100.00;60390.16;4866869;29;20021;-83
2023/03/15 06:39:39;;;;;;;5.57;3.60;;;;;;;-142.70;100.00;60390.16;4869566;29;20035;-80
2023/03/15 06:42:07;;;;;;;5.10;3.08;;;;;;;-142.70;100.00;60390.16;4884504;29;20088;-79
2023/03/15 06:44:33;;;;;;;5.00;3.08;;;;;;;-142.70;100.00;60390.16;4870042;29;20104;-79
2023/03/15 06:46:58;;;;;;;3.70;3.05;;;;;;;-142.70;100.00;60390.16;4870039;29;20072;-78
2023/03/15 06:49:24;;;;;;;4.03;3.10;;;;;;;-142.70;100.00;60390.16;4875901;29;20578;-82
2023/03/15 06:51:50;;;;;;;6.05;3.25;;;;;;;-142.70;100.00;60390.16;4872798;29;20029;-80
2023/03/15 06:54:16;;;;;;;6.68;3.30;;;;;;;-142.70;100.00;60390.16;4873811;29;20061;-80
2023/03/15 06:56:42;;;;;;;5.13;3.28;;;;;;;-142.70;100.00;60390.16;4882934;29;20025;-82
2023/03/15 06:59:07;;;;;;;5.22;4.07;;;;;;;-142.70;100.00;60390.16;4878518;29;20056;-80
2023/03/15 07:01:32;;;;;;;4.93;2.63;;;;;;;-142.70;100.00;60390.16;4875965;29;20096;-80
2023/03/15 07:03:58;;;;;;;4.93;2.58;;;;;;;-142.70;100.00;60390.16;4890896;29;20402;-81
2023/03/15 07:06:24;;;;;;;5.45;3.28;;;;;;;-142.70;100.00;60390.16;4873468;29;20024;-81
2023/03/15 07:08:49;;;;;;;4.05;3.15;;;;;;;-142.70;100.00;60390.16;4889230;29;20032;-81
2023/03/15 07:11:15;;;;;;;3.85;2.75;;;;;;;-142.70;100.00;60390.16;4861264;29;20973;-84
2023/03/15 07:13:40;;;;;;;4.18;3.30;;;;;;;-142.70;100.00;60390.16;4866379;29;20425;-82
2023/03/15 07:16:06;;;;;;;7.60;2.50;;;;;;;-142.70;100.00;60390.16;4878265;29;20040;-83
2023/03/15 07:18:33;;;;;;;3.33;3.03;;;;;;;-142.70;100.00;60390.16;4874862;29;20036;-82
2023/03/15 07:21:00;;;;;;;4.35;2.63;;;;;;;-142.70;100.00;60390.16;4873843;29;20044;-81
2023/03/15 07:23:25;;;;;;;4.50;2.47;;;;;;;-142.70;100.00;60390.16;4859441;29;20789;-80
2023/03/15 07:25:51;;;;;;;2.85;2.13;;;;;;;-142.70;100.00;60390.16;4883199;29;20029;-80
2023/03/15 07:28:16;;;;;;;5.03;2.70;;;;;;;-142.70;100.00;60390.16;4883164;29;20081;-80
2023/03/15 07:30:42;;;;;;;2.60;2.40;;;;;;;-142.70;100.00;60390.16;4860726;29;20040;-81
2023/03/15 07:33:07;;;;;;;4.60;2.55;;;;;;;-142.70;100.00;60390.16;4880139;29;20585;-80
2023/03/15 07:35:32;;;;;;;3.25;2.60;;;;;;;-142.70;100.00;60390.16;4860073;29;20072;-80
2023/03/15 07:37:58;;;;;;;2.92;2.38;;;;;;;-142.70;100.00;60390.16;4867678;29;20037;-80
2023/03/15 07:40:25;;;;;;;4.20;3.20;;;;;;;-142.70;100.00;60390.16;4888898;29;20029;-79
2023/03/15 07:42:50;;;;;;;3.58;2.90;;;;;;;-142.70;100.00;60390.16;4890004;29;20506;-80
2023/03/15 07:45:16;;;;;;;3.55;3.20;;;;;;;-142.70;100.00;60390.16;4868419;29;20124;-80
2023/03/15 07:47:41;;;;;;;3.83;3.20;;;;;;;-142.70;100.00;60390.16;4885430;29;20033;-79
2023/03/15 07:50:07;;;;;;;4.18;3.15;;;;;;;-142.70;100.00;60390.16;4873060;29;20419;-80
2023/03/15 07:52:33;;;;;;;3.38;2.60;;;;;;;-142.70;100.00;60390.16;4878319;29;20040;-80
2023/03/15 07:54:58;;;;;;;5.50;2.55;;;;;;;-142.70;100.00;60390.16;4888999;29;20161;-80
2023/03/15 07:57:24;;;;;;;6.25;2.90;;;;;;;-142.70;100.00;60390.16;4898807;29;20040;-80
2023/03/15 07:59:51;;;;;;;3.72;2.35;;;;;;;-142.70;100.00;60390.16;4867244;29;20037;-79
2023/03/15 08:02:17;;;;;;;3.30;2.60;;;;;;;-142.70;100.00;60390.16;4891540;29;20064;-80
2023/03/15 08:04:43;;;;;;;4.72;2.60;;;;;;;-142.70;100.00;60390.16;4853722;29;20549;-79
2023/03/15 08:07:09;;;;;;;2.47;2.17;;;;;;;-142.70;100.00;60390.16;4874149;29;20037;-81
2023/03/15 08:09:35;;;;;;;7.13;3.10;;;;;;;-142.70;100.00;60390.16;4869338;29;20036;-81
2023/03/15 08:12:01;;;;;;;4.07;2.83;;;;;;;-142.70;100.00;60390.16;4861851;29;20041;-81
2023/03/15 08:14:26;;;;;;;5.63;2.70;;;;;;;-142.70;100.00;60390.16;4875321;29;20814;-80
2023/03/15 08:16:52;;;;;;;3.40;2.72;;;;;;;-142.70;100.00;60390.16;4880214;29;20037;-80
2023/03/15 08:19:17;;;;;;;3.03;2.70;;;;;;;-142.70;100.00;60390.16;4886463;29;20429;-83
2023/03/15 08:21:44;;;;;;;3.45;2.50;;;;;;;-142.70;100.00;60390.16;4885136;29;20441;-80
2023/03/15 08:24:10;;;;;;;2.67;2.20;;;;;;;-142.70;100.00;60390.16;4863395;29;20168;-80
2023/03/15 08:26:36;;;;;;;3.42;2.47;;;;;;;-142.70;100.00;60390.16;4869742;29;20092;-80
2023/03/15 08:29:01;;;;;;;4.65;2.45;;;;;;;-142.70;100.00;60390.16;4886979;29;20114;-78
2023/03/15 08:31:27;;;;;;;3.55;2.15;;;;;;;-142.70;100.00;60390.16;4855451;29;20047;-81
2023/03/15 08:33:52;;;;;;;5.35;2.20;;;;;;;-142.70;100.00;60390.16;4855342;29;20032;-79
2023/03/15 08:36:18;;;;;;;2.88;2.10;;;;;;;-142.70;100.00;60390.16;4879332;29;20029;-78
2023/03/15 08:38:43;;;;;;;2.95;2.60;;;;;;;-142.70;100.00;60390.16;4861279;29;20041;-81
2023/03/15 08:41:09;;;;;;;3.33;2.42;;;;;;;-142.70;100.00;60390.16;4881728;29;20025;-79
2023/03/15 08:43:34;;;;;;;3.70;2.40;;;;;;;-142.70;100.00;60390.16;4866183;29;20100;-82
2023/03/15 08:46:00;;;;;;;2.92;2.10;;;;;;;-142.70;100.00;60390.16;4869283;29;20144;-81
2023/03/15 08:48:26;;;;;;;5.75;2.33;;;;;;;-142.70;100.00;60390.16;4868244;29;20036;-82
2023/03/15 08:50:51;;;;;;;2.78;2.28;;;;;;;-142.70;100.00;60390.16;4885946;29;20029;-78
2023/03/15 08:53:16;;;;;;;4.82;2.20;;;;;;;-142.70;100.00;60390.16;4866100;29;20037;-79
2023/03/15 08:55:43;;;;;;;2.65;1.88;;;;;;;-142.70;100.00;60390.16;4885436;29;20028;-78
2023/03/15 08:58:08;;;;;;;3.15;2.25;;;;;;;-142.70;100.00;60390.16;4868417;29;20084;-81
2023/03/15 09:00:33;;;;;;;6.07;2.20;;;;;;;-142.70;100.00;60390.16;4879063;29;20032;-81
2023/03/15 09:02:59;;;;;;;4.57;3.10;;;;;;;-142.70;100.00;60390.16;4883801;29;20032;-77
2023/03/15 09:05:25;;;;;;;3.53;3.17;;;;;;;-142.70;100.00;60390.16;4881445;29;20127;-80
2023/03/15 09:07:54;;;;;;;6.93;3.20;;;;;;;-142.70;100.00;60390.16;4886172;29;20111;-79
2023/03/15 09:10:20;;;;;;;4.22;3.42;;;;;;;-142.70;100.00;60390.16;4884265;29;20150;-80
2023/03/15 09:12:49;;;;;;;5.63;3.90;;;;;;;-142.70;100.00;60390.16;4886499;29;20045;-78
2023/03/15 09:15:14;;;;;;;5.00;4.20;;;;;;;-142.70;100.00;60390.16;4867810;29;20036;-79
2023/03/15 09:17:40;;;;;;;6.90;4.32;;;;;;;-142.70;100.00;60390.16;4887580;29;20052;-79
2023/03/15 09:20:11;;;;;;;5.43;4.20;;;;;;;-142.70;100.00;60390.16;4866718;29;20079;-78
2023/03/15 09:22:36;;;;;;;5.80;4.43;;;;;;;-142.70;100.00;60390.16;4853599;29;20033;-80
2023/03/15 09:25:03;;;;;;;4.57;3.42;;;;;;;-142.70;100.00;60390.16;4852422;29;20036;-80
2023/03/15 09:27:32;;;;;;;7.28;4.60;;;;;;;-142.70;100.00;60390.16;4843120;29;20033;-79
2023/03/15 09:29:57;;;;;;;4.07;3.05;;;;;;;-142.70;100.00;60390.16;4852322;29;20049;-80
2023/03/15 09:32:23;;;;;;;7.10;3.90;;;;;;;-142.70;100.00;60390.16;4863503;29;20042;-79
2023/03/15 09:34:50;;;;;;;8.15;3.75;;;;;;;-142.70;100.00;60390.16;4842569;29;20030;-80
2023/03/15 09:37:15;;;;;;;4.32;3.60;;;;;;;-142.70;100.00;60390.16;4839490;29;20389;-80
2023/03/15 09:39:41;;;;;;;6.20;3.33;;;;;;;-142.70;100.00;60390.16;4847487;29;20049;-78
2023/03/15 09:42:16;;;;;;;8.55;3.65;;;;;;;-142.70;100.00;60390.16;4865159;29;20040;-80
2023/03/15 09:44:51;;;;;;;6.65;3.40;;;;;;;-142.70;100.00;60390.16;4852539;29;20041;-79
2023/03/15 09:47:22;;;;;;;5.60;2.92;;;;;;;-142.70;100.00;60390.16;4847147;29;20090;-78
2023/03/15 09:49:51;;;;;;;4.95;3.13;;;;;;;-142.70;100.00;60390.16;4854853;29;20037;-79
2023/03/15 09:52:39;;;;;;;5.45;3.45;;;;;;;-142.70;100.00;60390.16;4869571;29;20051;-80
2023/03/15 09:55:24;;;;;;;6.28;3.38;;;;;;;-142.70;100.00;60390.16;4850848;29;20029;-80
2023/03/15 09:57:59;;;;;;;5.30;2.50;;;;;;;-142.70;100.00;60390.16;4853677;29;20584;-80
2023/03/15 10:00:52;;;;;;;6.07;3.10;;;;;;;-142.70;100.00;60390.16;4838489;29;20033;-80
2023/03/15 10:03:26;;;;;;;3.50;2.40;;;;;;;-142.70;100.00;60390.16;4856415;29;20056;-80
2023/03/15 10:05:56;;;;;;;3.67;2.47;;;;;;;-142.70;100.00;60390.16;4856567;29;20030;-80
2023/03/15 10:08:21;;;;;;;;;;;;;;;-142.70;100.00;60390.16;4852786;29;20063;-80
2023/03/15 10:11:04;;;;;;;4.43;2.72;;;;;;;-142.70;100.00;60390.16;4858040;29;19920;-81
2023/03/15 10:14:03;;;;;;;6.35;3.28;;;;;;;-142.70;100.00;60390.16;4855158;29;20424;-79
2023/03/15 10:16:39;;;;;;;;;;;;;;;-142.70;100.00;60390.16;4843442;29;20547;-79
2023/03/15 10:19:38;;;;;;;5.65;4.15;;;;;;;-142.70;100.00;60390.16;4859457;29;20674;-80
2023/03/15 10:22:20;;;;;;;4.43;3.58;;;;;;;-142.70;100.00;60390.16;4873424;29;20590;-80
2023/03/15 10:25:00;;;;;;;4.80;3.70;;;;;;;-142.70;100.00;60390.16;4870227;29;20048;-80
2023/03/15 10:27:56;;;;;;;3.78;3.30;;;;;;;-142.70;100.00;60390.16;4888884;29;20036;-80
2023/03/15 10:30:28;;;;;;;3.13;2.67;;;;;;;-142.70;100.00;60390.16;4865947;29;20044;-79
2023/03/15 10:33:20;;;;;;;3.58;2.72;;;;;;;-142.70;100.00;60390.16;4872446;29;20626;-79
2023/03/15 10:35:46;;;;;;;3.28;2.97;;;;;;;-142.70;100.00;60390.16;4888579;29;20166;-80
2023/03/15 10:38:19;;;;;;;4.95;2.92;;;;;;;-142.70;100.00;60390.16;4874361;29;20849;-80
2023/03/15 10:40:50;;;;;;;3.58;2.30;;;;;;;-142.70;100.00;60390.16;4856730;29;20112;-79
2023/03/15 10:43:33;;;;;;;5.82;4.10;;;;;;;-142.70;100.00;60390.16;4885660;29;20024;-79
2023/03/15 10:46:04;;;;;;;4.18;3.08;;;;;;;-142.70;100.00;60390.16;4854978;29;20092;-79
2023/03/15 10:48:36;;;;;;;5.03;3.45;;;;;;;-142.70;100.00;60390.16;4887693;29;20043;-79
2023/03/15 10:51:15;;;;;;;3.92;3.03;;;;;;;-142.70;100.00;60390.16;4869401;29;20044;-80
2023/03/15 10:54:11;;;;;;;7.32;3.25;;;;;;;-142.70;100.00;60390.16;4873215;29;20080;-79
2023/03/15 10:56:49;;;;;;;4.35;3.28;;;;;;;-142.70;100.00;60390.16;4886628;29;20052;-79
2023/03/15 10:59:20;;;;;;;5.65;3.33;;;;;;;-142.70;100.00;60390.16;4886492;29;20040;-80
2023/03/15 11:01:48;;;;;;;4.78;3.50;;;;;;;-142.70;100.00;60390.16;4888103;29;20541;-80
2023/03/15 11:04:20;;;;;;;6.43;3.72;;;;;;;-142.70;100.00;60390.16;4883312;29;20048;-80
2023/03/15 11:06:49;;;;;;;5.03;3.45;;;;;;;-142.70;100.00;60390.16;4872829;29;20052;-79
2023/03/15 11:09:24;;;;;;;3.67;2.47;;;;;;;-142.70;100.00;60390.16;4871076;29;20044;-80
2023/03/15 11:12:05;;;;;;;4.50;2.88;;;;;;;-142.70;100.00;60390.16;4874537;29;20115;-80